Latest Weather Observations for Warwick

IDQ60801

Issued at 1:02 pm EST Tuesday 28 February 2017 (issued every 30 minutes, with the page automatically refreshed every 10 minutes)

About weather observations | Map of weather stations | Latest weather observations for QLD | Other Formats
Station Details ID: 041525 Name: WARWICK Lat: -28.21 Lon: 152.10 Height: 475.4 m
Data from the previous 72 hours. | See also: Recent months at Warwick
Date/Time
EST
Temp
°C
App
Temp
°C
Dew
Point
°C
Rel
Hum
%
Delta-T
°C
Wind Press
QNH
hPa
Press
MSL
hPa
Rain since
9am
mm
Dir  Spd
km/h
Gust
km/h
Spd
kts
Gust
kts
28/01:00pm 24.8 22.9 16.7 60 5.1 SSE 22 35 12 19 1017.1 1014.6 0.0
28/12:30pm 24.7 23.3 16.5 60 5.1 SSE 19 33 10 18 1017.7 1015.1 0.0
28/12:00pm 24.7 22.8 16.7 61 5.0 SSE 22 41 12 22 1017.9 1015.3 0.0
28/11:30am 24.3 22.9 16.6 62 4.8 SSE 19 32 10 17 1018.1 1015.5 0.0
28/11:00am 23.3 22.1 16.2 64 4.4 SE 17 26 9 14 1018.3 1015.7 0.0
28/10:30am 21.6 20.1 16.4 72 3.2 SSE 19 30 10 16 1018.7 1016.1 0.0
28/10:00am 21.7 20.2 16.2 71 3.4 SSE 19 30 10 16 1018.8 1016.2 0.0
28/09:30am 20.8 19.5 15.9 73 3.0 SE 17 30 9 16 1018.9 1016.3 0.0
28/09:00am 20.1 19.3 16.0 77 2.5 SSE 15 24 8 13 1019.0 1016.5 0.0
28/08:30am 19.5 19.2 16.4 82 1.9 SSE 13 20 7 11 1019.2 1016.7 0.0
28/08:00am 18.9 18.5 16.1 84 1.7 SE 13 19 7 10 1019.0 1016.5 0.0
28/07:30am 18.3 18.2 16.0 86 1.4 SSE 11 19 6 10 1019.0 1016.5 0.0
28/07:00am 18.0 17.8 15.7 86 1.4 SSE 11 19 6 10 1018.5 1015.9 0.0
28/06:30am 17.3 16.6 15.5 89 1.1 SSE 13 20 7 11 1018.3 1015.7 0.0
28/06:00am 16.7 16.4 15.4 92 0.8 SSE 11 15 6 8 1018.0 1015.4 0.0
28/05:30am 16.4 16.4 15.2 93 0.7 SE 9 15 5 8 1017.9 1015.3 0.0
28/05:00am 16.7 16.7 15.2 91 0.9 SSE 9 17 5 9 1017.8 1015.2 0.0
28/04:30am 16.4 15.9 14.9 91 0.9 SSE 11 15 6 8 1017.6 1015.0 0.0
28/04:00am 16.6 16.1 14.9 90 1.0 SSE 11 15 6 8 1017.7 1015.1 0.0
28/03:30am 16.6 16.1 14.9 90 1.0 SSE 11 19 6 10 1017.7 1015.1 0.0
28/03:00am 16.8 14.9 15.1 90 1.0 SSE 19 24 10 13 1017.7 1015.1 0.0
28/02:30am 17.3 16.5 15.1 87 1.3 SSE 13 22 7 12 1018.0 1015.4 0.0
28/02:00am 17.0 16.0 14.6 86 1.4 SSE 13 19 7 10 1017.8 1015.2 0.0
28/01:30am 16.7 16.1 14.7 88 1.2 SSE 11 17 6 9 1018.0 1015.4 0.0
28/01:00am 17.0 15.9 14.4 85 1.5 SSE 13 20 7 11 1018.6 1016.0 0.0
28/12:30am 17.4 16.3 14.3 82 1.8 SE 13 19 7 10 1019.0 1016.5 0.0
28/12:00am 18.1 17.0 14.2 78 2.3 SE 13 22 7 12 1019.2 1016.7 0.0
 
Date/Time
EST
Temp
°C
App
Temp
°C
Dew
Point
°C
Rel
Hum
%
Delta-T
°C
Wind Press
QNH
hPa
Press
MSL
hPa
Rain since
9am
mm
Dir  Spd
km/h
Gust
km/h
Spd
kts
Gust
kts
27/11:30pm 18.1 16.3 14.4 79 2.2 SE 17 26 9 14 1019.3 1016.8 0.0
27/11:00pm 17.8 16.7 14.2 79 2.1 SSE 13 20 7 11 1019.5 1016.9 0.0
27/10:30pm 18.1 16.5 13.8 76 2.5 SE 15 26 8 14 1019.6 1017.0 0.0
27/10:00pm 18.3 17.3 14.6 79 2.2 SE 13 20 7 11 1019.6 1017.0 0.0
27/09:30pm 17.7 17.9 14.3 80 2.0 ESE 6 11 3 6 1019.7 1017.1 0.0
27/09:00pm 18.0 17.7 14.4 79 2.1 SE 9 15 5 8 1019.8 1017.2 0.0
27/08:30pm 18.3 17.9 14.0 76 2.5 SE 9 17 5 9 1019.9 1017.3 0.0
27/08:00pm 18.9 17.0 14.1 73 2.8 SE 17 26 9 14 1020.0 1017.4 0.0
27/07:30pm 19.2 17.7 14.3 73 2.9 SE 15 24 8 13 1019.5 1016.9 0.0
27/07:00pm 19.5 18.4 14.2 71 3.1 SE 13 20 7 11 1019.0 1016.5 0.0
27/06:30pm 20.1 18.6 14.2 69 3.5 SE 15 26 8 14 1018.9 1016.3 0.0
27/06:00pm 20.7 18.4 14.1 66 3.9 SE 19 30 10 16 1018.5 1015.9 0.0
27/05:30pm 21.2 18.8 14.3 64 4.1 SE 20 33 11 18 1018.2 1015.6 0.0
27/05:00pm 22.5 20.1 15.3 63 4.4 SE 22 33 12 18 1018.0 1015.4 0.0
27/04:30pm 22.7 19.9 14.4 59 5.0 SE 22 35 12 19 1017.7 1015.1 0.0
27/04:00pm 23.6 20.9 14.7 57 5.4 SE 22 32 12 17 1017.6 1015.0 0.0
27/03:30pm 24.1 22.2 14.3 54 5.9 SE 17 33 9 18 1017.5 1014.9 0.0
27/03:00pm 23.7 22.0 14.6 56 5.5 SE 17 32 9 17 1017.4 1014.8 0.0
27/02:30pm 24.3 21.9 15.3 57 5.5 SSE 22 39 12 21 1017.6 1015.0 0.0
27/02:00pm 23.8 20.5 15.1 58 5.3 SE 26 39 14 21 1017.7 1015.1 0.0
27/01:30pm 25.0 21.8 15.4 55 5.9 SSE 26 39 14 21 1018.0 1015.4 0.0
27/01:00pm 24.5 21.4 15.6 57 5.5 SSE 26 41 14 22 1018.3 1015.7 0.0
27/12:30pm 23.9 21.9 15.4 59 5.2 SSE 20 35 11 19 1018.8 1016.2 0.0
27/12:00pm 24.1 21.3 15.3 58 5.4 SSE 24 39 13 21 1018.9 1016.3 0.0
27/11:30am 24.3 21.6 15.5 58 5.4 SSE 24 37 13 20 1019.2 1016.7 0.0
27/11:00am 23.9 21.8 15.2 58 5.3 SE 20 32 11 17 1019.8 1017.2 0.0
27/10:30am 23.2 21.3 15.3 61 4.8 SE 19 33 10 18 1020.1 1017.5 0.0
27/10:00am 23.1 22.1 15.6 62 4.6 ESE 15 28 8 15 1020.3 1017.7 0.0
27/09:30am 23.2 21.1 15.3 61 4.8 SE 20 37 11 20 1020.4 1017.8 0.0
27/09:00am 21.9 19.8 15.1 65 4.1 SE 20 33 11 18 1020.3 1017.7 0.0
27/08:30am 21.4 19.1 14.7 65 4.0 SE 20 33 11 18 1020.1 1017.5 0.0
27/08:00am 20.6 18.3 14.7 69 3.5 SE 20 33 11 18 1019.6 1017.0 0.0
27/07:30am 19.0 17.3 14.8 76 2.5 SE 17 28 9 15 1019.5 1016.9 0.0
27/07:00am 18.3 16.6 14.8 80 2.1 SSE 17 26 9 14 1019.0 1016.5 0.0
27/06:30am 17.7 16.7 14.6 82 1.8 SSE 13 20 7 11 1019.1 1016.6 0.0
27/06:00am 17.2 16.6 14.5 84 1.6 SE 11 17 6 9 1018.8 1016.2 0.0
27/05:30am 17.3 16.3 14.6 84 1.6 SE 13 20 7 11 1018.7 1016.1 0.0
27/05:00am 17.4 16.4 14.5 83 1.7 SSE 13 20 7 11 1018.1 1015.5 0.0
27/04:30am 17.5 17.0 14.8 84 1.6 SSE 11 19 6 10 1017.7 1015.1 0.0
27/04:00am 17.5 16.6 14.8 84 1.6 SSE 13 19 7 10 1017.6 1015.0 0.0
27/03:30am 17.7 16.9 15.0 84 1.6 SSE 13 19 7 10 1017.6 1015.0 0.0
27/03:00am 17.8 17.8 15.1 84 1.6 SE 9 19 5 10 1018.1 1015.5 0.0
27/02:30am 18.2 17.9 15.4 84 1.7 SE 11 20 6 11 1018.2 1015.6 0.0
27/02:00am 17.9 17.5 15.2 84 1.6 SSE 11 20 6 11 1018.0 1015.4 0.0
27/01:30am 17.9 17.8 14.9 82 1.8 SSE 9 13 5 7 1018.2 1015.6 0.0
27/01:00am 18.1 17.6 14.9 81 1.9 SE 11 19 6 10 1018.3 1015.7 0.0
27/12:30am 18.4 16.8 14.9 80 2.1 SE 17 26 9 14 1018.5 1015.9 0.0
27/12:00am 18.2 18.0 14.6 79 2.1 SE 9 17 5 9 1019.0 1016.5 0.0
 
Date/Time
EST
Temp
°C
App
Temp
°C
Dew
Point
°C
Rel
Hum
%
Delta-T
°C
Wind Press
QNH
hPa
Press
MSL
hPa
Rain since
9am
mm
Dir  Spd
km/h
Gust
km/h
Spd
kts
Gust
kts
26/11:30pm 18.6 17.6 14.5 77 2.4 SE 13 20 7 11 1019.1 1016.6 0.0
26/11:00pm 18.8 17.5 14.9 78 2.3 SE 15 24 8 13 1019.1 1016.6 0.0
26/10:30pm 18.6 18.1 14.9 79 2.2 SE 11 19 6 10 1019.5 1016.9 0.0
26/10:00pm 18.3 18.1 14.8 80 2.1 SE 9 15 5 8 1019.6 1017.0 0.0
26/09:30pm 18.5 18.8 14.4 77 2.4 ESE 6 11 3 6 1019.2 1016.7 0.0
26/09:00pm 18.9 19.2 14.5 75 2.6 SE 6 9 3 5 1019.5 1016.9 0.0
26/08:30pm 19.6 18.2 14.5 72 3.0 SE 15 24 8 13 1019.1 1016.6 0.0
26/08:00pm 20.2 19.1 14.3 69 3.5 SE 13 20 7 11 1019.0 1016.5 0.0
26/07:30pm 20.8 18.9 14.2 66 3.9 SE 17 32 9 17 1018.7 1016.1 0.0
26/07:00pm 21.7 19.2 12.3 55 5.4 SE 17 28 9 15 1018.5 1015.9 0.0
26/06:30pm 22.7 21.9 12.8 53 5.8 ESE 9 19 5 10 1017.7 1015.1 0.0
26/06:00pm 23.8 21.3 11.2 45 7.2 ESE 15 24 8 13 1017.1 1014.6 0.0
26/05:30pm 25.2 22.4 11.5 42 7.9 ESE 17 33 9 18 1016.6 1014.0 0.0
26/05:00pm 26.6 24.8 13.4 44 7.9 SE 15 24 8 13 1016.1 1013.5 0.0
26/04:30pm 27.2 25.3 13.0 41 8.5 SE 15 28 8 15 1015.8 1013.2 0.0
26/04:00pm 27.3 25.2 13.5 42 8.3 SE 17 30 9 16 1015.8 1013.2 0.0
26/03:30pm 27.3 25.6 13.7 43 8.2 SE 15 28 8 15 1015.8 1013.2 0.0
26/03:00pm 27.5 25.5 13.8 43 8.3 SE 17 32 9 17 1016.0 1013.4 0.0
26/02:30pm 27.3 24.8 13.5 42 8.3 SE 19 28 10 15 1016.0 1013.4 0.0
26/02:00pm 26.9 25.2 13.6 44 8.0 ESE 15 26 8 14 1016.4 1013.8 0.0
26/01:30pm 27.3 25.2 13.5 42 8.3 SE 17 28 9 15 1016.7 1014.1 0.0
26/01:00pm 27.8 26.0 14.4 43 8.2 SE 17 30 9 16 1016.9 1014.3 0.0
26/12:30pm 27.0 24.6 14.4 46 7.7 SE 20 37 11 20 1017.5 1014.9 0.0
26/12:00pm 26.4 24.6 14.4 47 7.3 SE 17 30 9 16 1017.8 1015.2 0.0
26/11:30am 26.7 24.6 14.6 47 7.4 SE 19 33 10 18 1018.0 1015.4 0.0
26/11:00am 25.7 23.7 13.9 48 7.1 SE 17 28 9 15 1018.1 1015.5 0.0
26/10:30am 26.3 24.7 14.9 49 7.0 SE 17 32 9 17 1018.2 1015.6 0.0
26/10:00am 24.3 21.6 14.5 54 5.9 SE 22 37 12 20 1018.5 1015.9 0.0
26/09:30am 23.8 21.7 14.7 56 5.5 ESE 19 33 10 18 1018.3 1015.7 0.0
26/09:00am 22.0 20.1 15.1 65 4.2 SE 19 33 10 18 1018.1 1015.5 -
26/08:30am 21.8 20.3 15.2 66 4.0 SE 17 26 9 14 1018.4 1015.8 -
26/08:00am 21.1 19.5 15.1 68 3.6 SE 17 24 9 13 1018.1 1015.5 -
26/07:30am 20.4 20.1 15.4 73 3.0 SE 11 19 6 10 1017.8 1015.2 -
26/07:00am 19.5 18.4 15.3 76 2.5 SE 15 24 8 13 1017.4 1014.8 -
26/06:30am 18.8 17.8 15.5 81 2.0 SE 15 22 8 12 1016.9 1014.3 -
26/06:00am 18.3 18.8 15.5 84 1.7 SE 7 15 4 8 1017.0 1014.4 -
26/05:30am 18.1 18.5 15.4 84 1.6 SE 7 13 4 7 1016.7 1014.1 -
26/05:00am 17.9 18.3 15.4 85 1.5 ESE 7 13 4 7 1016.1 1013.5 -
26/04:30am 17.9 18.4 15.6 86 1.4 SE 7 11 4 6 1016.3 1013.7 -
26/04:00am 17.4 18.0 15.4 88 1.2 SE 6 11 3 6 1015.7 1013.1 -
26/03:30am 17.2 18.4 15.0 87 1.3 SSE 2 9 1 5 1015.8 1013.2 -
26/03:00am 16.9 17.7 14.9 88 1.2 ENE 4 9 2 5 1015.9 1013.3 0.0
26/02:30am 17.7 18.9 14.8 83 1.7 SE 2 9 1 5 1016.1 1013.5 -
26/02:00am 17.7 18.1 14.8 83 1.7 SE 6 15 3 8 1016.4 1013.8 -
26/01:30am 18.1 17.5 14.7 80 2.0 SE 11 15 6 8 1016.6 1014.0 -
26/01:00am 18.1 18.0 14.9 81 1.9 ENE 9 13 5 7 1016.7 1014.1 -
26/12:30am 18.5 19.5 15.3 81 1.9 SE 4 11 2 6 1016.9 1014.3 -
26/12:00am 19.2 18.9 15.4 78 2.3 SE 11 15 6 8 1017.1 1014.6 -
 
Date/Time
EST
Temp
°C
App
Temp
°C
Dew
Point
°C
Rel
Hum
%
Delta-T
°C
Wind Press
QNH
hPa
Press
MSL
hPa
Rain since
9am
mm
Dir  Spd
km/h
Gust
km/h
Spd
kts
Gust
kts
25/11:30pm 19.9 18.8 15.2 74 2.8 SE 15 26 8 14 1017.6 1015.0 -
25/11:00pm 20.4 19.3 15.3 72 3.1 SE 15 24 8 13 1018.0 1015.4 -
25/10:30pm 20.8 19.4 15.5 71 3.2 SE 17 24 9 13 1018.2 1015.6 -
25/10:00pm 21.0 20.0 15.6 71 3.3 SSE 15 30 8 16 1018.5 1015.9 -
25/09:30pm 21.4 21.6 15.8 70 3.4 ESE 9 19 5 10 1018.3 1015.7 -
25/09:00pm 21.7 22.2 16.5 72 3.2 ESE 9 19 5 10 1018.1 1015.5 0.0
25/08:30pm 22.0 21.2 16.2 69 3.6 SE 15 24 8 13 1017.4 1014.8 -
25/08:00pm 22.1 22.2 16.6 71 3.4 SE 11 19 6 10 1016.9 1014.3 -
25/07:30pm 22.8 23.1 16.9 69 3.7 SE 11 20 6 11 1016.4 1013.8 -
25/07:00pm 23.9 23.2 16.5 63 4.6 SE 15 24 8 13 1016.0 1013.4 -
25/06:30pm 24.9 24.9 15.1 54 6.0 ESE 9 17 5 9 1015.4 1012.8 -
25/06:00pm 26.5 26.0 14.8 48 7.2 SE 11 22 6 12 1015.1 1012.4 -
25/05:30pm 27.8 27.2 14.6 44 8.1 ESE 11 19 6 10 1014.6 1012.0 -
25/05:00pm 28.4 27.4 14.6 43 8.5 ESE 13 22 7 12 1014.4 1011.8 -
25/04:30pm 28.7 27.9 15.0 43 8.5 ESE 13 22 7 12 1014.4 1011.8 -
25/04:00pm 29.3 28.1 15.0 41 8.9 SE 15 28 8 15 1014.4 1011.8 -
25/03:30pm 28.9 27.6 14.9 42 8.7 ESE 15 24 8 13 1014.5 1011.9 -
25/03:00pm 29.4 29.0 15.1 41 8.9 ESE 11 20 6 11 1014.8 1012.2 -
25/02:30pm 28.7 28.0 14.4 41 8.8 ESE 11 20 6 11 1015.1 1012.4 -
25/02:00pm 29.2 28.1 14.4 40 9.1 SE 13 32 7 17 1015.5 1012.9 -
25/01:30pm 28.3 26.8 14.3 42 8.6 SE 15 28 8 15 1015.9 1013.3 -

Other Formats:

Comma delimited format used in spreadsheet applications
http://www.bom.gov.au/fwo/IDQ60801/IDQ60801.94555.axf

JavaScript Object Notation format (JSON) in row-major order
http://www.bom.gov.au/fwo/IDQ60801/IDQ60801.94555.json